MET'MAP v2.0
soon released !

Expected late october,
this new version will be
more efficient, smarter,
and hosted on a brand new
server x3 powerfull...
...and still free !


Not compatible ?
Try the mobile version !

LOG IN : | Subscribe | Disclaimer | Who is Orbifly ? |
ICAO code :
Legend : VFR Marginal VFR IFR Intensive IFR Very Intensive IFR
Visi :
Ceiling :
>= 8 km
>= 3000ft
5 to 8 km
1000 to 3000 ft
1500m to 5 km
500 to 1000 ft
800 to 1500m
200 to 500 ft
< 800m
< 200 ft

METAR - EGAC George Best Belfast City - 05 Jun 2020 04:20 UTC - Data Source NOAA   


- Airport Elevation : 15 ft
- IATA code : BHD
- No reported NOTAMs.


EGAC - George Best Belfast City

Latest METAR recorded : 2015/08/11 07:50 EGAC 110750Z VRB02KT 9999 -DZ FEW007 SCT012 BKN017 14/11 Q1019
TAF AMD TAF EGAC
Valid from the 05 at 01:00 until the 05 at 06:00 UTC


050107Z 0501/0506 33009KT 9999 SCT025
PROB30
TEMPO 0504/0506 7000 SHRA

Source NOAA
ATIS : +44 02890 935 124


MET'MAP, your aeronautical weather chart ! - Copyright ORBIFLY December 2007

Programming & Development : Alexandra Zaïnal
Co-Developer : Marc-Olivier Méhu
Technical & hardware support : Manuel Goepfert
Concept & Financing : Baudouin d'Aumeries